Time;durP1;ratioP1;P1;durP2;ratioP2;P2;SDS_P1;SDS_P2;PMS_P1;PMS_P2;Temp;Humidity;BMP_temperature;BMP_pressure;BME280_temperature;BME280_humidity;BME280_pressure;Samples;Min_cycle;Max_cycle;Signal;HPM_P1;HPM_P2
2022/05/20 00:04:36;;;;;;;3.03;2.70;;;22.50;34.30;;;;;;10429320;28;20232;-68
2022/05/20 00:09:39;;;;;;;2.37;2.23;;;22.50;33.60;;;;;;10431440;28;20217;-68
2022/05/20 00:14:44;;;;;;;3.03;2.20;;;22.30;33.50;;;;;;10430522;28;20232;-68
2022/05/20 00:19:47;;;;;;;3.30;2.23;;;22.20;34.40;;;;;;10429195;28;20225;-69
2022/05/20 00:30:14;;;;;;;5.23;2.47;;;22.00;34.00;;;;;;10431948;28;20232;-68
2022/05/20 00:35:17;;;;;;;2.20;2.10;;;21.90;35.20;;;;;;10429201;28;20593;-68
2022/05/20 00:40:23;;;;;;;2.50;2.30;;;21.90;34.60;;;;;;10431597;28;20225;-68
2022/05/20 00:45:27;;;;;;;3.40;2.33;;;21.90;35.10;;;;;;10426909;28;20235;-68
2022/05/20 00:50:31;;;;;;;3.93;2.13;;;21.90;35.30;;;;;;10430902;28;20221;-68
2022/05/20 00:55:36;;;;;;;2.33;2.13;;;21.80;34.80;;;;;;10427717;28;20227;-68
2022/05/20 01:00:44;;;;;;;3.00;2.47;;;21.80;34.80;;;;;;10428619;28;20233;-69
2022/05/20 01:05:49;;;;;;;3.67;2.50;;;21.80;35.80;;;;;;10426775;28;20229;-69
2022/05/20 01:10:53;;;;;;;3.93;2.07;;;21.80;34.60;;;;;;10429025;28;20236;-68
2022/05/20 01:16:02;;;;;;;2.33;2.10;;;21.60;34.20;;;;;;10431938;28;20260;-69
2022/05/20 01:21:06;;;;;;;2.20;2.10;;;21.50;34.90;;;;;;10429287;28;20592;-70
2022/05/20 01:26:11;;;;;;;3.10;1.97;;;21.40;34.40;;;;;;10427335;28;20236;-69
2022/05/20 01:31:16;;;;;;;5.47;2.23;;;21.30;35.10;;;;;;10429837;28;20235;-70
2022/05/20 01:36:22;;;;;;;3.77;2.00;;;21.30;35.00;;;;;;10429377;28;20233;-70
2022/05/20 01:41:32;;;;;;;2.13;1.97;;;21.20;35.20;;;;;;10429552;28;20224;-70
2022/05/20 01:46:39;;;;;;;2.57;2.40;;;21.30;36.00;;;;;;10428287;28;20771;-70
2022/05/20 01:51:47;;;;;;;3.60;2.20;;;21.20;35.40;;;;;;10429884;28;20256;-70
2022/05/20 01:56:57;;;;;;;2.63;2.43;;;21.20;35.80;;;;;;10435735;28;20574;-70
2022/05/20 02:02:06;;;;;;;3.07;1.90;;;21.10;36.80;;;;;;10435374;28;20221;-70
2022/05/20 02:07:12;;;;;;;2.37;2.27;;;21.10;35.80;;;;;;10435320;28;20247;-70
2022/05/20 02:12:20;;;;;;;2.93;2.43;;;21.00;35.30;;;;;;10435065;28;20228;-71
2022/05/20 02:17:27;;;;;;;4.20;2.40;;;20.90;36.10;;;;;;10435015;28;20228;-70
2022/05/20 02:22:35;;;;;;;2.43;2.07;;;20.80;35.90;;;;;;10435105;28;20331;-70
2022/05/20 02:27:42;;;;;;;2.57;2.37;;;20.70;35.90;;;;;;10436801;28;20227;-70
2022/05/20 02:32:49;;;;;;;2.73;2.53;;;20.70;36.60;;;;;;10434532;28;20724;-70
2022/05/20 02:37:52;;;;;;;2.43;1.93;;;20.60;36.20;;;;;;10435661;28;20233;-70
2022/05/20 02:42:56;;;;;;;2.57;2.30;;;20.60;35.70;;;;;;10435018;28;20233;-70
2022/05/20 02:48:00;;;;;;;3.23;2.73;;;20.60;36.50;;;;;;10431287;28;20323;-74
2022/05/20 02:53:03;;;;;;;2.93;2.40;;;20.60;35.70;;;;;;10435326;28;20228;-74
2022/05/20 02:58:08;;;;;;;2.50;2.30;;;20.50;35.90;;;;;;10435792;28;20228;-74
2022/05/20 03:08:31;;;;;;;2.77;2.27;;;20.50;36.00;;;;;;10433788;28;20221;-74
2022/05/20 03:13:36;;;;;;;2.53;2.13;;;20.50;36.10;;;;;;10431825;28;20720;-74
2022/05/20 03:18:39;;;;;;;3.30;2.60;;;20.50;36.90;;;;;;10437432;28;20229;-74
2022/05/20 03:23:42;;;;;;;3.57;2.40;;;20.50;36.20;;;;;;10431454;28;20227;-74
2022/05/20 03:28:47;;;;;;;2.70;2.50;;;20.50;35.80;;;;;;10438369;28;20245;-74
2022/05/20 03:33:50;;;;;;;2.40;2.13;;;20.50;36.70;;;;;;10430634;28;20236;-74
2022/05/20 03:38:53;;;;;;;2.50;2.30;;;20.40;36.10;;;;;;10433601;28;20225;-74
2022/05/20 03:43:58;;;;;;;4.80;2.20;;;20.40;36.40;;;;;;10434560;28;20229;-74
2022/05/20 03:49:02;;;;;;;2.80;1.80;;;20.40;36.90;;;;;;10432702;28;20240;-74
2022/05/20 03:54:06;;;;;;;2.60;2.40;;;20.40;36.50;;;;;;10429333;28;20221;-74
2022/05/20 03:59:11;;;;;;;3.87;2.50;;;20.40;36.90;;;;;;10429904;28;20220;-74
2022/05/20 04:04:15;;;;;;;2.30;2.20;;;20.40;36.90;;;;;;10431438;28;20251;-74
2022/05/20 04:09:18;;;;;;;3.27;2.10;;;20.40;36.70;;;;;;10434061;28;20227;-74
2022/05/20 04:14:23;;;;;;;2.80;2.60;;;20.40;36.90;;;;;;10427565;28;20712;-74
2022/05/20 04:19:30;;;;;;;5.13;2.90;;;20.40;36.90;;;;;;10433321;28;20229;-73
2022/05/20 04:24:33;;;;;;;3.33;2.37;;;20.30;36.80;;;;;;10428861;28;20636;-73
2022/05/20 04:29:38;;;;;;;3.23;2.80;;;20.40;36.90;;;;;;10430696;28;20897;-73
2022/05/20 04:34:41;;;;;;;7.80;3.07;;;20.40;37.40;;;;;;10429920;28;20241;-73
2022/05/20 04:39:44;;;;;;;3.20;2.60;;;20.40;36.90;;;;;;10430605;28;20256;-74
2022/05/20 04:50:11;;;;;;;3.43;3.00;;;20.40;38.10;;;;;;10427667;28;20218;-74
2022/05/20 04:55:15;;;;;;;4.00;3.13;;;20.50;37.70;;;;;;10430060;28;20228;-75
2022/05/20 05:00:22;;;;;;;3.70;3.30;;;20.50;38.30;;;;;;10430471;28;20224;-74
2022/05/20 05:05:29;;;;;;;3.30;3.00;;;20.50;38.80;;;;;;10430957;28;20239;-73
2022/05/20 05:10:33;;;;;;;3.80;3.50;;;20.60;38.50;;;;;;10428499;28;20225;-81
2022/05/20 05:15:38;;;;;;;3.50;3.20;;;20.60;37.90;;;;;;10432267;28;20228;-75
2022/05/20 05:20:44;;;;;;;3.90;3.50;;;20.70;39.10;;;;;;10425567;28;20288;-74
2022/05/20 05:25:48;;;;;;;5.00;3.73;;;20.80;39.60;;;;;;10426201;28;20611;-74
2022/05/20 05:30:54;;;;;;;4.97;4.20;;;20.90;38.90;;;;;;10427336;28;20228;-74
2022/05/20 05:35:57;;;;;;;3.83;3.33;;;21.00;39.50;;;;;;10427575;28;20225;-74
2022/05/20 05:41:00;;;;;;;6.53;3.50;;;21.10;39.00;;;;;;10429587;28;20602;-74
2022/05/20 05:46:05;;;;;;;4.00;3.60;;;21.20;38.90;;;;;;10424342;28;20233;-74
2022/05/20 05:51:09;;;;;;;3.80;3.50;;;21.30;39.70;;;;;;10429304;28;20600;-73
2022/05/20 05:56:13;;;;;;;5.70;3.97;;;21.30;38.90;;;;;;10425785;28;20221;-74
2022/05/20 06:01:17;;;;;;;4.60;3.90;;;21.40;39.00;;;;;;10426622;28;20244;-74
2022/05/20 06:06:21;;;;;;;4.30;3.73;;;21.50;39.60;;;;;;10425312;28;20236;-74
2022/05/20 06:11:24;;;;;;;3.90;3.57;;;21.50;39.30;;;;;;10427254;28;20221;-74
2022/05/20 06:16:30;;;;;;;3.90;3.60;;;21.60;39.50;;;;;;10428238;28;20225;-73
2022/05/20 06:21:33;;;;;;;3.73;3.43;;;21.70;40.30;;;;;;10428230;28;20252;-74
2022/05/20 06:26:37;;;;;;;3.60;3.30;;;21.80;40.00;;;;;;10426160;28;20267;-74
2022/05/20 06:31:43;;;;;;;3.37;3.17;;;22.00;40.00;;;;;;10427655;28;20264;-74
2022/05/20 06:42:07;;;;;;;3.70;3.40;;;22.30;39.90;;;;;;10432467;28;21032;-73
2022/05/20 06:47:13;;;;;;;3.37;3.17;;;22.50;39.70;;;;;;10431923;28;20225;-73
2022/05/20 06:52:16;;;;;;;4.00;3.13;;;22.70;40.20;;;;;;10432431;28;20232;-74
2022/05/20 06:57:40;;;;;;;3.30;3.10;;;22.90;39.40;;;;;;10430088;28;20236;-74
2022/05/20 07:02:44;;;;;;;3.30;3.03;;;23.10;40.00;;;;;;10432284;28;20221;-74
2022/05/20 07:07:48;;;;;;;3.40;3.20;;;23.30;39.40;;;;;;10431662;28;20229;-74
2022/05/20 07:12:51;;;;;;;3.50;3.20;;;23.50;39.60;;;;;;10433831;28;20225;-74
2022/05/20 07:17:55;;;;;;;5.00;3.00;;;23.70;39.80;;;;;;10434607;28;20236;-74
2022/05/20 07:22:59;;;;;;;3.63;3.30;;;23.90;39.90;;;;;;10429852;28;20225;-74
2022/05/20 07:28:02;;;;;;;3.30;3.10;;;24.10;40.10;;;;;;10433251;28;20232;-73
2022/05/20 07:33:08;;;;;;;3.03;2.83;;;24.30;39.60;;;;;;10431442;28;20217;-74
2022/05/20 07:38:11;;;;;;;3.70;3.40;;;24.50;39.40;;;;;;10428410;28;20233;-74
2022/05/20 07:43:14;;;;;;;3.80;3.50;;;24.80;39.20;;;;;;10426497;28;20232;-74
2022/05/20 07:48:20;;;;;;;3.57;3.33;;;25.00;38.70;;;;;;10419919;28;20237;-73
2022/05/20 07:53:33;;;;;;;3.23;3.00;;;25.20;38.80;;;;;;10421001;28;20232;-74
2022/05/20 07:58:39;;;;;;;3.30;3.00;;;25.40;38.30;;;;;;10425472;28;20236;-74
2022/05/20 08:09:17;;;;;;;3.47;3.27;;;25.90;37.70;;;;;;10421949;28;20232;-74
2022/05/20 08:14:21;;;;;;;3.67;3.37;;;26.10;37.40;;;;;;10424878;28;21049;-74
2022/05/20 08:19:26;;;;;;;3.20;3.00;;;26.40;37.20;;;;;;10425782;28;20232;-72
2022/05/20 08:24:29;;;;;;;3.30;3.10;;;26.60;36.90;;;;;;10425794;28;20230;-73
2022/05/20 08:29:33;;;;;;;3.30;3.10;;;26.90;36.80;;;;;;10429576;28;20693;-72
2022/05/20 08:34:38;;;;;;;3.40;3.03;;;27.10;35.70;;;;;;10428770;28;20217;-72
2022/05/20 08:39:47;;;;;;;2.90;2.70;;;27.40;35.50;;;;;;10433838;28;20263;-74
2022/05/20 08:44:50;;;;;;;3.60;3.20;;;27.60;35.20;;;;;;10436477;28;20232;-73
2022/05/20 08:49:58;;;;;;;3.30;3.10;;;27.90;34.40;;;;;;10431076;28;20221;-74
2022/05/20 08:55:01;;;;;;;3.60;3.30;;;28.10;33.10;;;;;;10431315;28;20230;-74
2022/05/20 09:00:16;;;;;;;3.20;2.97;;;28.40;33.30;;;;;;10427664;28;20316;-74
2022/05/20 09:05:23;;;;;;;3.47;2.90;;;28.50;32.90;;;;;;10428361;28;20229;-70
2022/05/20 09:10:36;;;;;;;3.57;2.80;;;28.70;31.80;;;;;;10424977;28;20229;-69
2022/05/20 09:15:46;;;;;;;3.10;2.90;;;28.90;31.80;;;;;;10428315;28;21820;-69
2022/05/20 09:20:53;;;;;;;3.30;3.00;;;29.20;31.30;;;;;;10428697;28;20661;-69
2022/05/20 09:26:05;;;;;;;3.13;2.90;;;29.40;31.10;;;;;;10426422;28;20675;-68
2022/05/20 09:31:23;;;;;;;3.03;2.83;;;29.70;31.30;;;;;;10428450;28;20217;-69
2022/05/20 09:36:39;;;;;;;3.67;3.37;;;29.90;31.00;;;;;;10427451;28;20232;-69
2022/05/20 09:41:56;;;;;;;4.27;3.87;;;30.10;30.30;;;;;;10429335;28;20228;-69
2022/05/20 09:47:02;;;;;;;3.30;3.10;;;30.30;30.00;;;;;;10426169;28;20708;-69
2022/05/20 09:52:21;;;;;;;3.40;3.10;;;30.50;29.10;;;;;;10423224;28;20222;-69
2022/05/20 09:57:30;;;;;;;6.70;3.10;;;30.70;29.60;;;;;;10418062;28;21049;-69
2022/05/20 10:02:38;;;;;;;3.57;3.27;;;31.00;29.10;;;;;;10418289;28;20259;-70
2022/05/20 10:07:56;;;;;;;3.57;3.37;;;31.20;28.10;;;;;;10408498;28;20229;-69
2022/05/20 10:13:01;;;;;;;3.70;3.40;;;31.30;27.90;;;;;;10417547;28;20235;-69
2022/05/20 10:18:15;;;;;;;3.13;2.93;;;31.40;27.80;;;;;;10424526;28;20278;-69
2022/05/20 10:23:29;;;;;;;3.70;3.40;;;31.50;27.40;;;;;;10422544;28;20229;-69
2022/05/20 10:34:02;;;;;;;3.50;3.30;;;31.80;27.30;;;;;;10426314;28;20599;-69
2022/05/20 10:39:22;;;;;;;3.47;3.20;;;32.00;27.80;;;;;;10420459;28;20695;-69
2022/05/20 10:50:16;;;;;;;3.40;3.10;;;32.20;26.40;;;;;;10426906;28;20221;-74
2022/05/20 10:55:33;;;;;;;3.40;3.10;;;32.30;26.10;;;;;;10428885;28;20233;-74
2022/05/20 11:00:45;;;;;;;4.00;3.00;;;32.40;23.50;;;;;;10431032;28;20233;-74
2022/05/20 11:06:25;;;;;;;3.23;2.93;;;32.50;23.40;;;;;;10435804;28;20236;-74
2022/05/20 11:11:54;;;;;;;3.43;3.10;;;32.60;23.50;;;;;;10432274;28;20228;-74
2022/05/20 11:17:14;;;;;;;3.40;3.10;;;32.50;22.50;;;;;;10425168;28;20236;-75
2022/05/20 11:22:42;;;;;;;4.93;3.10;;;32.60;23.10;;;;;;10426084;28;20224;-75
2022/05/20 11:28:30;;;;;;;3.33;3.13;;;32.70;23.10;;;;;;10425104;28;20260;-75
2022/05/20 11:33:50;;;;;;;4.27;3.03;;;32.80;24.60;;;;;;10360929;28;20218;-75
2022/05/20 11:39:20;;;;;;;4.17;3.00;;;33.00;23.80;;;;;;10433991;28;20212;-76
2022/05/20 11:44:50;;;;;;;3.60;3.30;;;33.10;22.70;;;;;;10428985;28;20232;-75
2022/05/20 11:50:11;;;;;;;3.33;3.10;;;33.20;22.80;;;;;;10429889;28;20241;-75
2022/05/20 11:55:18;;;;;;;4.13;3.10;;;33.20;21.80;;;;;;10430880;28;20236;-75
2022/05/20 12:00:22;;;;;;;3.47;2.90;;;33.30;21.70;;;;;;10432781;28;20259;-75
2022/05/20 12:05:31;;;;;;;3.17;2.87;;;33.40;21.90;;;;;;10429550;28;20337;-76
2022/05/20 12:10:44;;;;;;;3.20;3.00;;;33.30;20.20;;;;;;10429934;28;20645;-77
2022/05/20 12:15:50;;;;;;;3.03;2.73;;;33.30;20.30;;;;;;10432098;28;20739;-77
2022/05/20 12:26:49;;;;;;;4.53;3.20;;;33.30;21.00;;;;;;10429397;28;20236;-77
2022/05/20 12:31:52;;;;;;;3.27;3.07;;;33.40;20.80;;;;;;10434668;28;20225;-77
2022/05/20 12:36:57;;;;;;;3.33;3.03;;;33.40;21.50;;;;;;10433071;28;20834;-76
2022/05/20 12:42:02;;;;;;;3.57;3.27;;;33.50;20.30;;;;;;10430240;28;20962;-77
2022/05/20 12:47:29;;;;;;;3.40;3.10;;;33.60;20.50;;;;;;10429040;28;20221;-78
2022/05/20 12:52:45;;;;;;;3.40;3.10;;;33.60;21.20;;;;;;10425710;28;20231;-77
2022/05/20 12:57:51;;;;;;;3.50;3.10;;;33.70;19.70;;;;;;10424337;28;20229;-77
2022/05/20 13:02:56;;;;;;;4.37;3.53;;;33.60;20.10;;;;;;10432712;28;20225;-77
2022/05/20 13:08:04;;;;;;;3.50;3.20;;;33.60;20.30;;;;;;10428578;28;20307;-76
2022/05/20 13:13:10;;;;;;;4.27;3.30;;;33.70;20.10;;;;;;10424695;28;20288;-76
2022/05/20 13:18:17;;;;;;;3.70;3.40;;;33.70;19.80;;;;;;10426770;28;20720;-76
2022/05/20 13:23:24;;;;;;;3.30;3.00;;;33.70;19.80;;;;;;10434005;28;20224;-76
2022/05/20 13:28:32;;;;;;;3.87;2.97;;;33.80;19.10;;;;;;10425492;28;20249;-76
2022/05/20 13:33:37;;;;;;;3.60;3.30;;;33.80;19.80;;;;;;10425032;28;20253;-77
2022/05/20 13:38:44;;;;;;;3.17;2.97;;;33.90;19.30;;;;;;10424687;28;20230;-77
2022/05/20 13:43:48;;;;;;;3.53;3.23;;;34.00;18.90;;;;;;10430514;28;20236;-77
2022/05/20 13:54:19;;;;;;;3.77;3.27;;;34.00;18.70;;;;;;10429626;28;20216;-77
2022/05/20 13:59:32;;;;;;;3.87;3.10;;;34.00;18.20;;;;;;10429659;28;20240;-77
2022/05/20 14:04:41;;;;;;;3.77;3.03;;;33.90;18.40;;;;;;10428409;28;20232;-77
2022/05/20 14:09:50;;;;;;;3.77;3.17;;;33.90;17.90;;;;;;10432397;28;20234;-78
2022/05/20 14:14:58;;;;;;;4.33;3.20;;;34.00;17.60;;;;;;10433031;28;20236;-77
2022/05/20 14:20:08;;;;;;;3.40;3.10;;;34.00;17.90;;;;;;10434463;28;20901;-77
2022/05/20 14:25:21;;;;;;;2.97;2.77;;;34.00;17.90;;;;;;10426748;28;20740;-78
2022/05/20 14:30:31;;;;;;;3.07;2.80;;;34.10;17.20;;;;;;10428490;28;20221;-78
2022/05/20 14:35:40;;;;;;;3.33;3.03;;;34.20;17.40;;;;;;10424587;28;20233;-74
2022/05/20 14:40:45;;;;;;;3.30;3.00;;;34.20;17.80;;;;;;10426595;28;20228;-74
2022/05/20 14:45:53;;;;;;;3.27;2.93;;;34.20;17.40;;;;;;10421802;28;20251;-74
2022/05/20 14:50:58;;;;;;;3.73;2.73;;;34.30;16.70;;;;;;10429911;28;20306;-74
2022/05/20 14:56:03;;;;;;;3.23;2.90;;;34.30;16.90;;;;;;10420426;28;20717;-74
2022/05/20 15:01:09;;;;;;;3.00;2.80;;;34.20;16.30;;;;;;10430265;28;20949;-74
2022/05/20 15:06:17;;;;;;;3.33;2.90;;;34.20;16.30;;;;;;10432158;28;20229;-74
2022/05/20 15:11:27;;;;;;;4.13;2.73;;;34.10;16.10;;;;;;10435022;28;20741;-74
2022/05/20 15:16:30;;;;;;;3.37;2.80;;;34.10;16.20;;;;;;10433559;28;21025;-74
2022/05/20 15:21:36;;;;;;;3.37;2.67;;;34.20;16.50;;;;;;10433336;28;20331;-70
2022/05/20 15:26:41;;;;;;;5.87;2.90;;;34.20;16.20;;;;;;10433266;28;20228;-70
2022/05/20 15:37:07;;;;;;;3.10;2.67;;;34.30;16.20;;;;;;10427422;28;20240;-70
2022/05/20 15:42:13;;;;;;;3.03;2.67;;;34.20;15.50;;;;;;10435163;28;20225;-69
2022/05/20 15:47:17;;;;;;;3.33;3.03;;;34.20;15.30;;;;;;10432784;28;20235;-69
2022/05/20 15:52:24;;;;;;;3.70;2.87;;;34.10;15.60;;;;;;10433174;28;20233;-69
2022/05/20 15:57:32;;;;;;;3.00;2.70;;;34.20;15.20;;;;;;10431361;28;20733;-69
2022/05/20 16:02:38;;;;;;;3.00;2.70;;;34.20;14.70;;;;;;10430240;28;20233;-69
2022/05/20 16:07:46;;;;;;;3.17;2.87;;;34.10;15.30;;;;;;10430438;28;20239;-69
2022/05/20 16:12:50;;;;;;;4.10;2.63;;;34.10;15.00;;;;;;10431248;28;20218;-72
2022/05/20 16:17:54;;;;;;;5.13;2.53;;;34.00;15.00;;;;;;10428995;28;20900;-73
2022/05/20 16:22:58;;;;;;;3.40;3.03;;;34.00;15.30;;;;;;10428799;28;20232;-73
2022/05/20 16:28:02;;;;;;;3.63;2.80;;;34.00;15.10;;;;;;10429054;28;20221;-73
2022/05/20 16:33:06;;;;;;;2.60;2.40;;;33.90;14.80;;;;;;10430264;28;20217;-73
2022/05/20 16:38:11;;;;;;;4.47;2.67;;;33.80;15.20;;;;;;10429733;28;20229;-73
2022/05/20 16:43:16;;;;;;;5.53;2.70;;;33.60;14.90;;;;;;10427113;28;20232;-73
2022/05/20 16:48:22;;;;;;;2.70;2.50;;;33.60;15.00;;;;;;10430002;28;20251;-75
2022/05/20 16:53:26;;;;;;;3.83;2.50;;;33.50;14.90;;;;;;10431413;28;20612;-75
2022/05/20 17:04:05;;;;;;;2.57;2.37;;;33.30;15.20;;;;;;10299199;28;20231;-73
2022/05/20 17:09:08;;;;;;;3.70;2.53;;;33.20;15.60;;;;;;10396376;28;20221;-73
2022/05/20 17:14:15;;;;;;;4.67;4.10;;;33.10;15.70;;;;;;10426234;28;20221;-73
2022/05/20 17:19:19;;;;;;;4.37;3.40;;;33.10;16.00;;;;;;10429230;28;20561;-73
2022/05/20 17:24:23;;;;;;;4.40;3.23;;;33.10;16.30;;;;;;10430334;28;20614;-73
2022/05/20 17:29:30;;;;;;;3.37;2.70;;;33.00;15.90;;;;;;10429815;28;20268;-73
2022/05/20 17:34:35;;;;;;;4.80;2.97;;;32.90;15.60;;;;;;10431021;28;20229;-73
2022/05/20 17:39:39;;;;;;;2.80;2.60;;;32.80;16.10;;;;;;10424201;28;20598;-72
2022/05/20 17:44:44;;;;;;;2.73;2.53;;;32.70;16.50;;;;;;10430866;28;20232;-71
2022/05/20 17:49:48;;;;;;;4.77;2.80;;;32.60;16.60;;;;;;10426115;28;20791;-71
2022/05/20 17:54:52;;;;;;;5.67;5.07;;;32.50;16.00;;;;;;10424948;28;20233;-71
2022/05/20 17:59:56;;;;;;;4.80;3.20;;;32.50;16.20;;;;;;10428650;28;20220;-71
2022/05/20 18:05:00;;;;;;;7.67;3.20;;;32.30;16.30;;;;;;10427466;28;20217;-71
2022/05/20 18:10:03;;;;;;;4.30;2.80;;;32.10;16.60;;;;;;10425653;28;20224;-71
2022/05/20 18:15:09;;;;;;;3.43;2.73;;;31.80;16.80;;;;;;10429496;28;20224;-71
2022/05/20 18:20:13;;;;;;;3.77;2.93;;;31.50;17.20;;;;;;10427000;28;20306;-71
2022/05/20 18:25:18;;;;;;;3.73;2.90;;;31.30;17.50;;;;;;10426845;28;20225;-71
2022/05/20 18:30:22;;;;;;;3.57;2.87;;;31.00;17.80;;;;;;10426839;28;20221;-71
2022/05/20 18:40:46;;;;;;;3.43;2.70;;;30.80;18.20;;;;;;10436320;28;20908;-71
2022/05/20 18:45:51;;;;;;;2.93;2.40;;;30.60;18.40;;;;;;10437360;28;20893;-71
2022/05/20 18:50:55;;;;;;;3.43;2.90;;;30.50;18.70;;;;;;10433578;28;20665;-72
2022/05/20 18:55:58;;;;;;;3.87;2.73;;;30.40;18.70;;;;;;10433761;28;20779;-71
2022/05/20 19:01:03;;;;;;;3.30;3.00;;;30.40;19.00;;;;;;10432229;28;20678;-71
2022/05/20 19:06:06;;;;;;;6.47;3.33;;;30.40;19.40;;;;;;10432534;28;20220;-72
2022/05/20 19:11:12;;;;;;;5.93;2.80;;;30.30;19.60;;;;;;10433084;28;20232;-72
2022/05/20 19:16:19;;;;;;;2.87;2.67;;;30.20;19.70;;;;;;10434558;28;20231;-71
2022/05/20 19:21:24;;;;;;;3.17;2.60;;;30.10;20.00;;;;;;10433261;28;20255;-71
2022/05/20 19:26:27;;;;;;;3.00;2.70;;;30.00;20.10;;;;;;10432092;28;20267;-71
2022/05/20 19:31:32;;;;;;;4.73;3.13;;;29.90;20.10;;;;;;10430199;28;20350;-72
2022/05/20 19:36:35;;;;;;;6.87;6.20;;;29.70;20.90;;;;;;10432826;28;20224;-72
2022/05/20 19:41:39;;;;;;;4.00;3.60;;;29.60;20.90;;;;;;10429837;28;20267;-72
2022/05/20 19:46:43;;;;;;;3.50;3.17;;;29.50;20.90;;;;;;10426644;28;20589;-71
2022/05/20 19:51:53;;;;;;;3.90;2.90;;;29.50;20.90;;;;;;10429394;28;20226;-71
2022/05/20 20:00:39;;;;;;;4.57;2.70;;;29.40;20.80;;;;;;10433033;28;20232;-72
2022/05/20 20:02:21;;;;;;;3.27;2.97;;;29.40;21.30;;;;;;10430107;28;20231;-72
2022/05/20 20:07:24;;;;;;;3.63;3.20;;;29.30;21.30;;;;;;10430372;28;20592;-72
2022/05/20 20:12:27;;;;;;;4.40;3.10;;;29.20;21.20;;;;;;10430353;28;20237;-71
2022/05/20 20:17:32;;;;;;;5.03;3.90;;;29.00;21.50;;;;;;10432367;28;20239;-72
2022/05/20 20:27:57;;;;;;;5.47;3.50;;;28.90;21.90;;;;;;10431117;28;20238;-72
2022/05/20 20:33:01;;;;;;;4.67;4.27;;;28.90;22.00;;;;;;10432445;28;20827;-71
2022/05/20 20:38:05;;;;;;;3.57;3.30;;;28.80;22.60;;;;;;10429854;28;20223;-71
2022/05/20 20:43:09;;;;;;;5.17;3.20;;;28.70;22.20;;;;;;10430186;28;20714;-71
2022/05/20 20:48:14;;;;;;;4.40;3.13;;;28.70;22.90;;;;;;10428268;28;20866;-71
2022/05/20 20:53:19;;;;;;;4.13;3.67;;;28.60;23.60;;;;;;10429575;28;20283;-71
2022/05/20 20:58:23;;;;;;;3.70;3.40;;;28.60;23.50;;;;;;10423161;28;20232;-71
2022/05/20 21:03:32;;;;;;;4.13;3.27;;;28.40;23.70;;;;;;10426568;28;20899;-71
2022/05/20 21:08:37;;;;;;;4.50;4.10;;;28.20;24.60;;;;;;10422148;28;20248;-72
2022/05/20 21:13:41;;;;;;;4.20;3.80;;;28.10;24.60;;;;;;10420972;28;20221;-72
2022/05/20 21:18:46;;;;;;;3.97;3.57;;;28.00;24.50;;;;;;10423793;28;20298;-72
2022/05/20 21:23:49;;;;;;;4.47;3.47;;;28.00;25.20;;;;;;10423168;28;20232;-73
2022/05/20 21:28:53;;;;;;;4.33;3.17;;;27.90;24.70;;;;;;10423843;28;20221;-72
2022/05/20 21:33:58;;;;;;;4.57;3.60;;;27.80;24.70;;;;;;10422915;28;20249;-72
2022/05/20 21:39:02;;;;;;;5.63;3.63;;;27.70;25.20;;;;;;10425998;28;20237;-72
2022/05/20 21:44:07;;;;;;;3.90;3.50;;;27.60;25.00;;;;;;10424562;28;20224;-72
2022/05/20 21:49:12;;;;;;;5.17;3.30;;;27.40;25.10;;;;;;10426664;28;20274;-72
2022/05/20 21:54:16;;;;;;;3.67;3.30;;;27.20;25.40;;;;;;10420573;28;20256;-72
2022/05/20 21:59:19;;;;;;;5.57;3.67;;;27.10;25.20;;;;;;10421051;28;20291;-72
2022/05/20 22:09:45;;;;;;;7.47;3.40;;;27.00;25.90;;;;;;10419894;28;20243;-72
2022/05/20 22:14:48;;;;;;;7.53;3.40;;;27.00;25.40;;;;;;10427294;28;20302;-72
2022/05/20 22:19:53;;;;;;;7.90;4.07;;;26.90;25.40;;;;;;10426793;28;20248;-72
2022/05/20 22:24:57;;;;;;;4.50;4.10;;;26.90;25.80;;;;;;10434972;28;20228;-72
2022/05/20 22:30:00;;;;;;;6.00;4.50;;;26.90;25.90;;;;;;10436148;28;20582;-72
2022/05/20 22:35:07;;;;;;;6.67;4.10;;;26.90;26.50;;;;;;10437446;28;20332;-72
2022/05/20 22:40:12;;;;;;;5.80;4.37;;;26.80;27.60;;;;;;10435891;28;20228;-73
2022/05/20 22:45:16;;;;;;;5.07;3.77;;;26.60;27.50;;;;;;10433534;28;20224;-73
2022/05/20 22:50:20;;;;;;;5.33;3.80;;;26.40;27.30;;;;;;10438665;28;20213;-73
2022/05/20 23:00:44;;;;;;;5.50;3.47;;;26.00;27.80;;;;;;10435222;28;20228;-73
2022/05/20 23:05:48;;;;;;;4.47;3.63;;;25.80;28.10;;;;;;10436217;28;20237;-73
2022/05/20 23:10:52;;;;;;;4.40;3.37;;;25.60;29.20;;;;;;10433573;28;20225;-73
2022/05/20 23:15:55;;;;;;;4.10;3.40;;;25.60;28.10;;;;;;10432454;28;20224;-73
2022/05/20 23:20:59;;;;;;;3.33;3.03;;;25.50;28.40;;;;;;10432698;28;20814;-72
2022/05/20 23:26:05;;;;;;;4.73;3.20;;;25.50;29.00;;;;;;10433199;28;20224;-73
2022/05/20 23:31:11;;;;;;;5.03;3.40;;;25.40;29.00;;;;;;10438070;28;20244;-73
2022/05/20 23:41:40;;;;;;;4.63;3.47;;;25.10;30.30;;;;;;10433366;28;20236;-74
2022/05/20 23:46:44;;;;;;;6.37;3.20;;;25.00;29.80;;;;;;10431833;28;20295;-74
2022/05/20 23:51:50;;;;;;;4.30;3.60;;;24.90;30.60;;;;;;10434642;28;20236;-74
2022/05/20 23:57:08;;;;;;;5.87;3.43;;;24.70;31.30;;;;;;10429588;28;20225;-74
